sensor_id;sensor_type;location;lat;lon;timestamp;temperature;humidity
18779;DHT22;9518;51.720;14.384;2022-07-29T00:01:53;14.10;1.00
18779;DHT22;9518;51.720;14.384;2022-07-29T00:04:22;14.10;1.00
18779;DHT22;9518;51.720;14.384;2022-07-29T00:06:48;14.20;1.00
18779;DHT22;9518;51.720;14.384;2022-07-29T00:09:15;14.20;1.00
18779;DHT22;9518;51.720;14.384;2022-07-29T00:11:42;14.10;1.00
18779;DHT22;9518;51.720;14.384;2022-07-29T00:14:09;14.20;1.00
18779;DHT22;9518;51.720;14.384;2022-07-29T00:16:36;14.20;1.00
18779;DHT22;9518;51.720;14.384;2022-07-29T00:19:03;14.20;1.00
18779;DHT22;9518;51.720;14.384;2022-07-29T00:21:32;14.10;1.00
18779;DHT22;9518;51.720;14.384;2022-07-29T00:23:59;14.10;1.00
18779;DHT22;9518;51.720;14.384;2022-07-29T00:26:25;14.00;1.00
18779;DHT22;9518;51.720;14.384;2022-07-29T00:28:57;14.00;1.00
18779;DHT22;9518;51.720;14.384;2022-07-29T00:31:24;13.90;1.00
18779;DHT22;9518;51.720;14.384;2022-07-29T00:33:51;13.90;1.00
18779;DHT22;9518;51.720;14.384;2022-07-29T00:36:18;13.90;1.00
18779;DHT22;9518;51.720;14.384;2022-07-29T00:38:47;13.90;1.00
18779;DHT22;9518;51.720;14.384;2022-07-29T00:41:16;13.80;1.00
18779;DHT22;9518;51.720;14.384;2022-07-29T00:43:43;13.80;1.00
18779;DHT22;9518;51.720;14.384;2022-07-29T00:46:10;13.80;1.00
18779;DHT22;9518;51.720;14.384;2022-07-29T00:48:37;13.80;1.00
18779;DHT22;9518;51.720;14.384;2022-07-29T00:51:05;13.70;1.00
18779;DHT22;9518;51.720;14.384;2022-07-29T00:53:33;13.70;1.00
18779;DHT22;9518;51.720;14.384;2022-07-29T00:56:02;13.70;1.00
18779;DHT22;9518;51.720;14.384;2022-07-29T00:58:28;13.70;1.00
18779;DHT22;9518;51.720;14.384;2022-07-29T01:00:55;13.70;1.00
18779;DHT22;9518;51.720;14.384;2022-07-29T01:03:22;13.70;1.00
18779;DHT22;9518;51.720;14.384;2022-07-29T01:05:50;13.70;1.00
18779;DHT22;9518;51.720;14.384;2022-07-29T01:08:17;13.60;1.00
18779;DHT22;9518;51.720;14.384;2022-07-29T01:10:45;13.60;1.00
18779;DHT22;9518;51.720;14.384;2022-07-29T01:13:14;13.50;1.00
18779;DHT22;9518;51.720;14.384;2022-07-29T01:15:44;13.50;1.00
18779;DHT22;9518;51.720;14.384;2022-07-29T01:18:18;13.50;1.00
18779;DHT22;9518;51.720;14.384;2022-07-29T01:23:59;13.40;1.00
18779;DHT22;9518;51.720;14.384;2022-07-29T01:26:41;13.30;1.00
18779;DHT22;9518;51.720;14.384;2022-07-29T01:29:17;13.30;1.00
18779;DHT22;9518;51.720;14.384;2022-07-29T01:31:48;13.20;1.00
18779;DHT22;9518;51.720;14.384;2022-07-29T01:34:21;13.20;1.00
18779;DHT22;9518;51.720;14.384;2022-07-29T01:36:51;13.10;1.00
18779;DHT22;9518;51.720;14.384;2022-07-29T01:39:27;13.00;1.00
18779;DHT22;9518;51.720;14.384;2022-07-29T01:42:09;13.00;1.00
18779;DHT22;9518;51.720;14.384;2022-07-29T01:44:46;13.00;1.00
18779;DHT22;9518;51.720;14.384;2022-07-29T01:47:19;12.90;1.00
18779;DHT22;9518;51.720;14.384;2022-07-29T01:49:51;12.90;1.00
18779;DHT22;9518;51.720;14.384;2022-07-29T01:52:26;12.90;1.00
18779;DHT22;9518;51.720;14.384;2022-07-29T01:54:58;12.80;1.00
18779;DHT22;9518;51.720;14.384;2022-07-29T01:57:28;12.80;1.00
18779;DHT22;9518;51.720;14.384;2022-07-29T01:59:58;12.70;1.00
18779;DHT22;9518;51.720;14.384;2022-07-29T02:02:28;12.80;1.00
18779;DHT22;9518;51.720;14.384;2022-07-29T02:04:57;12.70;1.00
18779;DHT22;9518;51.720;14.384;2022-07-29T02:07:27;12.70;1.00
18779;DHT22;9518;51.720;14.384;2022-07-29T02:09:56;12.70;1.00
18779;DHT22;9518;51.720;14.384;2022-07-29T02:12:24;12.70;1.00
18779;DHT22;9518;51.720;14.384;2022-07-29T02:14:54;12.80;1.00
18779;DHT22;9518;51.720;14.384;2022-07-29T02:17:26;12.70;1.00
18779;DHT22;9518;51.720;14.384;2022-07-29T02:19:56;12.80;1.00
18779;DHT22;9518;51.720;14.384;2022-07-29T02:22:25;12.70;1.00
18779;DHT22;9518;51.720;14.384;2022-07-29T02:24:53;12.70;1.00
18779;DHT22;9518;51.720;14.384;2022-07-29T02:27:22;12.70;1.00
18779;DHT22;9518;51.720;14.384;2022-07-29T02:29:51;12.60;1.00
18779;DHT22;9518;51.720;14.384;2022-07-29T02:32:19;12.60;1.00
18779;DHT22;9518;51.720;14.384;2022-07-29T02:34:49;12.60;1.00
18779;DHT22;9518;51.720;14.384;2022-07-29T02:37:18;12.70;1.00
18779;DHT22;9518;51.720;14.384;2022-07-29T02:39:47;12.70;1.00
18779;DHT22;9518;51.720;14.384;2022-07-29T02:42:16;12.80;1.00
18779;DHT22;9518;51.720;14.384;2022-07-29T02:44:44;12.80;1.00
18779;DHT22;9518;51.720;14.384;2022-07-29T02:47:16;12.90;1.00
18779;DHT22;9518;51.720;14.384;2022-07-29T02:49:52;12.90;1.00
18779;DHT22;9518;51.720;14.384;2022-07-29T02:52:23;12.90;1.00
18779;DHT22;9518;51.720;14.384;2022-07-29T02:54:53;12.90;1.00
18779;DHT22;9518;51.720;14.384;2022-07-29T02:57:26;12.90;1.00
18779;DHT22;9518;51.720;14.384;2022-07-29T02:59:57;12.90;1.00
18779;DHT22;9518;51.720;14.384;2022-07-29T03:02:25;13.00;1.00
18779;DHT22;9518;51.720;14.384;2022-07-29T03:04:56;13.00;1.00
18779;DHT22;9518;51.720;14.384;2022-07-29T03:07:24;13.00;1.00
18779;DHT22;9518;51.720;14.384;2022-07-29T03:09:53;13.00;1.00
18779;DHT22;9518;51.720;14.384;2022-07-29T03:12:20;13.00;1.00
18779;DHT22;9518;51.720;14.384;2022-07-29T03:14:48;13.10;1.00
18779;DHT22;9518;51.720;14.384;2022-07-29T03:17:15;13.10;1.00
18779;DHT22;9518;51.720;14.384;2022-07-29T03:19:43;13.10;1.00
18779;DHT22;9518;51.720;14.384;2022-07-29T03:22:12;13.10;1.00
18779;DHT22;9518;51.720;14.384;2022-07-29T03:24:40;13.10;1.00
18779;DHT22;9518;51.720;14.384;2022-07-29T03:27:07;13.00;1.00
18779;DHT22;9518;51.720;14.384;2022-07-29T03:29:34;13.10;1.00
18779;DHT22;9518;51.720;14.384;2022-07-29T03:32:03;13.10;1.00
18779;DHT22;9518;51.720;14.384;2022-07-29T03:34:30;13.10;1.00
18779;DHT22;9518;51.720;14.384;2022-07-29T03:36:59;13.20;1.00
18779;DHT22;9518;51.720;14.384;2022-07-29T03:39:29;13.20;1.00
18779;DHT22;9518;51.720;14.384;2022-07-29T03:41:59;13.30;1.00
18779;DHT22;9518;51.720;14.384;2022-07-29T03:44:27;13.40;1.00
18779;DHT22;9518;51.720;14.384;2022-07-29T03:46:56;13.50;1.00
18779;DHT22;9518;51.720;14.384;2022-07-29T03:49:25;13.60;1.00
18779;DHT22;9518;51.720;14.384;2022-07-29T03:51:52;13.70;1.00
18779;DHT22;9518;51.720;14.384;2022-07-29T03:54:19;13.80;1.00
18779;DHT22;9518;51.720;14.384;2022-07-29T03:56:48;13.80;1.00
18779;DHT22;9518;51.720;14.384;2022-07-29T03:59:17;13.80;1.00
18779;DHT22;9518;51.720;14.384;2022-07-29T04:01:45;13.90;1.00
18779;DHT22;9518;51.720;14.384;2022-07-29T04:04:13;13.90;1.00
18779;DHT22;9518;51.720;14.384;2022-07-29T04:06:41;14.00;1.00
18779;DHT22;9518;51.720;14.384;2022-07-29T04:09:08;14.00;1.00
18779;DHT22;9518;51.720;14.384;2022-07-29T04:11:36;14.10;1.00
18779;DHT22;9518;51.720;14.384;2022-07-29T04:14:04;14.10;1.00
18779;DHT22;9518;51.720;14.384;2022-07-29T04:16:31;14.20;1.00
18779;DHT22;9518;51.720;14.384;2022-07-29T04:18:59;14.20;1.00
18779;DHT22;9518;51.720;14.384;2022-07-29T04:21:26;14.30;1.00
18779;DHT22;9518;51.720;14.384;2022-07-29T04:23:52;14.40;1.00
18779;DHT22;9518;51.720;14.384;2022-07-29T04:26:20;14.50;1.00
18779;DHT22;9518;51.720;14.384;2022-07-29T04:28:47;14.60;1.00
18779;DHT22;9518;51.720;14.384;2022-07-29T04:31:15;14.50;1.00
18779;DHT22;9518;51.720;14.384;2022-07-29T04:33:42;14.60;1.00
18779;DHT22;9518;51.720;14.384;2022-07-29T04:36:09;14.60;1.00
18779;DHT22;9518;51.720;14.384;2022-07-29T04:38:37;14.60;1.00
18779;DHT22;9518;51.720;14.384;2022-07-29T04:41:04;14.70;1.00
18779;DHT22;9518;51.720;14.384;2022-07-29T04:43:32;14.80;1.00
18779;DHT22;9518;51.720;14.384;2022-07-29T04:45:59;14.80;1.00
18779;DHT22;9518;51.720;14.384;2022-07-29T04:48:27;14.90;1.00
18779;DHT22;9518;51.720;14.384;2022-07-29T04:50:55;14.90;1.00
18779;DHT22;9518;51.720;14.384;2022-07-29T04:53:22;14.90;1.00
18779;DHT22;9518;51.720;14.384;2022-07-29T04:55:49;15.00;1.00
18779;DHT22;9518;51.720;14.384;2022-07-29T04:58:15;15.10;1.00
18779;DHT22;9518;51.720;14.384;2022-07-29T05:00:42;15.10;1.00
18779;DHT22;9518;51.720;14.384;2022-07-29T05:03:09;15.20;1.00
18779;DHT22;9518;51.720;14.384;2022-07-29T05:05:38;15.20;1.00
18779;DHT22;9518;51.720;14.384;2022-07-29T05:08:05;15.30;1.00
18779;DHT22;9518;51.720;14.384;2022-07-29T05:10:31;15.30;1.00
18779;DHT22;9518;51.720;14.384;2022-07-29T05:13:01;15.30;1.00
18779;DHT22;9518;51.720;14.384;2022-07-29T05:15:28;15.40;1.00
18779;DHT22;9518;51.720;14.384;2022-07-29T05:17:54;15.50;1.00
18779;DHT22;9518;51.720;14.384;2022-07-29T05:20:22;15.60;1.00
18779;DHT22;9518;51.720;14.384;2022-07-29T05:22:53;15.70;1.00
18779;DHT22;9518;51.720;14.384;2022-07-29T05:25:20;15.80;1.00
18779;DHT22;9518;51.720;14.384;2022-07-29T05:27:47;16.00;1.00
18779;DHT22;9518;51.720;14.384;2022-07-29T05:30:14;16.00;1.00
18779;DHT22;9518;51.720;14.384;2022-07-29T05:32:41;16.20;1.00
18779;DHT22;9518;51.720;14.384;2022-07-29T05:35:08;16.30;1.00
18779;DHT22;9518;51.720;14.384;2022-07-29T05:37:35;16.40;1.00
18779;DHT22;9518;51.720;14.384;2022-07-29T05:40:05;16.50;1.00
18779;DHT22;9518;51.720;14.384;2022-07-29T05:42:32;16.80;1.00
18779;DHT22;9518;51.720;14.384;2022-07-29T05:44:59;17.00;1.00
18779;DHT22;9518;51.720;14.384;2022-07-29T05:47:26;17.20;1.00
18779;DHT22;9518;51.720;14.384;2022-07-29T05:49:53;17.40;1.00
18779;DHT22;9518;51.720;14.384;2022-07-29T05:52:20;17.50;1.00
18779;DHT22;9518;51.720;14.384;2022-07-29T05:54:47;17.60;1.00
18779;DHT22;9518;51.720;14.384;2022-07-29T05:57:20;17.60;1.00
18779;DHT22;9518;51.720;14.384;2022-07-29T05:59:48;17.70;1.00
18779;DHT22;9518;51.720;14.384;2022-07-29T06:02:16;17.70;1.00
18779;DHT22;9518;51.720;14.384;2022-07-29T06:04:43;17.80;1.00
18779;DHT22;9518;51.720;14.384;2022-07-29T06:07:10;17.90;1.00
18779;DHT22;9518;51.720;14.384;2022-07-29T06:09:37;18.10;1.00
18779;DHT22;9518;51.720;14.384;2022-07-29T06:12:04;18.20;1.00
18779;DHT22;9518;51.720;14.384;2022-07-29T06:14:33;18.30;1.00
18779;DHT22;9518;51.720;14.384;2022-07-29T06:17:00;18.50;1.00
18779;DHT22;9518;51.720;14.384;2022-07-29T06:19:27;18.60;1.00
18779;DHT22;9518;51.720;14.384;2022-07-29T06:21:54;18.60;1.00
18779;DHT22;9518;51.720;14.384;2022-07-29T06:24:21;18.70;1.00
18779;DHT22;9518;51.720;14.384;2022-07-29T06:26:48;18.80;1.00
18779;DHT22;9518;51.720;14.384;2022-07-29T06:29:15;19.00;1.00
18779;DHT22;9518;51.720;14.384;2022-07-29T06:31:44;19.10;1.00
18779;DHT22;9518;51.720;14.384;2022-07-29T06:34:11;19.30;1.00
18779;DHT22;9518;51.720;14.384;2022-07-29T06:36:38;19.50;1.00
18779;DHT22;9518;51.720;14.384;2022-07-29T06:39:05;19.90;1.00
18779;DHT22;9518;51.720;14.384;2022-07-29T06:41:33;20.10;1.00
18779;DHT22;9518;51.720;14.384;2022-07-29T06:44:01;20.40;99.90
18779;DHT22;9518;51.720;14.384;2022-07-29T06:46:28;20.50;99.90
18779;DHT22;9518;51.720;14.384;2022-07-29T06:48:56;20.40;99.90
18779;DHT22;9518;51.720;14.384;2022-07-29T06:51:23;20.50;99.90
18779;DHT22;9518;51.720;14.384;2022-07-29T06:53:51;20.50;99.90
18779;DHT22;9518;51.720;14.384;2022-07-29T06:56:18;20.60;99.90
18779;DHT22;9518;51.720;14.384;2022-07-29T06:58:44;20.50;99.90
18779;DHT22;9518;51.720;14.384;2022-07-29T07:01:12;20.70;99.90
18779;DHT22;9518;51.720;14.384;2022-07-29T07:03:38;20.80;99.90
18779;DHT22;9518;51.720;14.384;2022-07-29T07:06:07;20.90;99.90
18779;DHT22;9518;51.720;14.384;2022-07-29T07:08:34;21.10;99.90
18779;DHT22;9518;51.720;14.384;2022-07-29T07:11:01;21.50;99.90
18779;DHT22;9518;51.720;14.384;2022-07-29T07:13:29;22.00;99.90
18779;DHT22;9518;51.720;14.384;2022-07-29T07:16:00;22.20;99.90
18779;DHT22;9518;51.720;14.384;2022-07-29T07:18:27;22.10;99.90
18779;DHT22;9518;51.720;14.384;2022-07-29T07:20:54;22.30;99.90
18779;DHT22;9518;51.720;14.384;2022-07-29T07:23:22;22.50;99.90
18779;DHT22;9518;51.720;14.384;2022-07-29T07:25:50;22.70;99.90
18779;DHT22;9518;51.720;14.384;2022-07-29T07:28:17;22.70;99.90
18779;DHT22;9518;51.720;14.384;2022-07-29T07:30:45;22.80;99.90
18779;DHT22;9518;51.720;14.384;2022-07-29T07:33:12;22.70;99.90
18779;DHT22;9518;51.720;14.384;2022-07-29T07:35:39;22.70;99.90
18779;DHT22;9518;51.720;14.384;2022-07-29T07:38:06;22.80;99.90
18779;DHT22;9518;51.720;14.384;2022-07-29T07:40:35;23.00;99.90
18779;DHT22;9518;51.720;14.384;2022-07-29T07:43:02;23.20;99.90
18779;DHT22;9518;51.720;14.384;2022-07-29T07:45:29;22.90;99.90
18779;DHT22;9518;51.720;14.384;2022-07-29T07:47:58;23.00;99.90
18779;DHT22;9518;51.720;14.384;2022-07-29T07:50:25;23.10;99.90
18779;DHT22;9518;51.720;14.384;2022-07-29T07:52:54;23.30;99.90
18779;DHT22;9518;51.720;14.384;2022-07-29T07:55:23;23.60;99.90
18779;DHT22;9518;51.720;14.384;2022-07-29T07:57:52;23.60;99.90
18779;DHT22;9518;51.720;14.384;2022-07-29T08:00:19;23.70;99.90
18779;DHT22;9518;51.720;14.384;2022-07-29T08:02:47;23.50;99.90
18779;DHT22;9518;51.720;14.384;2022-07-29T08:05:14;23.60;99.90
18779;DHT22;9518;51.720;14.384;2022-07-29T08:07:44;23.50;99.90
18779;DHT22;9518;51.720;14.384;2022-07-29T08:10:11;23.50;99.90
18779;DHT22;9518;51.720;14.384;2022-07-29T08:12:38;23.60;99.90
18779;DHT22;9518;51.720;14.384;2022-07-29T08:15:08;23.80;99.90
18779;DHT22;9518;51.720;14.384;2022-07-29T08:17:35;23.80;99.90
18779;DHT22;9518;51.720;14.384;2022-07-29T08:20:03;23.80;99.90
18779;DHT22;9518;51.720;14.384;2022-07-29T08:22:30;23.90;99.90
18779;DHT22;9518;51.720;14.384;2022-07-29T08:24:57;23.90;99.90
18779;DHT22;9518;51.720;14.384;2022-07-29T08:27:24;23.90;99.90
18779;DHT22;9518;51.720;14.384;2022-07-29T08:29:52;24.00;99.90
18779;DHT22;9518;51.720;14.384;2022-07-29T08:32:22;24.00;99.90
18779;DHT22;9518;51.720;14.384;2022-07-29T08:34:49;24.00;99.90
18779;DHT22;9518;51.720;14.384;2022-07-29T08:37:16;24.10;99.90
18779;DHT22;9518;51.720;14.384;2022-07-29T08:39:43;24.10;99.90
18779;DHT22;9518;51.720;14.384;2022-07-29T08:42:10;24.00;99.90
18779;DHT22;9518;51.720;14.384;2022-07-29T08:44:37;24.30;99.90
18779;DHT22;9518;51.720;14.384;2022-07-29T08:47:05;24.60;99.90
18779;DHT22;9518;51.720;14.384;2022-07-29T08:49:34;24.80;99.90
18779;DHT22;9518;51.720;14.384;2022-07-29T08:52:02;24.90;99.90
18779;DHT22;9518;51.720;14.384;2022-07-29T08:54:30;25.00;99.90
18779;DHT22;9518;51.720;14.384;2022-07-29T08:56:58;25.00;99.90
18779;DHT22;9518;51.720;14.384;2022-07-29T08:59:27;25.00;99.90
18779;DHT22;9518;51.720;14.384;2022-07-29T09:01:57;24.70;99.90
18779;DHT22;9518;51.720;14.384;2022-07-29T09:04:29;24.90;99.90
18779;DHT22;9518;51.720;14.384;2022-07-29T09:07:00;24.70;99.90
18779;DHT22;9518;51.720;14.384;2022-07-29T09:09:30;24.60;99.90
18779;DHT22;9518;51.720;14.384;2022-07-29T09:11:59;24.60;99.90
18779;DHT22;9518;51.720;14.384;2022-07-29T09:14:26;24.80;99.90
18779;DHT22;9518;51.720;14.384;2022-07-29T09:16:54;25.00;99.90
18779;DHT22;9518;51.720;14.384;2022-07-29T09:19:27;24.80;99.90
18779;DHT22;9518;51.720;14.384;2022-07-29T09:21:55;24.90;99.90
18779;DHT22;9518;51.720;14.384;2022-07-29T09:24:27;25.00;99.90
18779;DHT22;9518;51.720;14.384;2022-07-29T09:27:02;25.00;99.90
18779;DHT22;9518;51.720;14.384;2022-07-29T09:29:32;25.20;99.90
18779;DHT22;9518;51.720;14.384;2022-07-29T09:31:59;25.60;99.90
18779;DHT22;9518;51.720;14.384;2022-07-29T09:34:28;25.80;99.90
18779;DHT22;9518;51.720;14.384;2022-07-29T09:36:57;26.00;99.90
18779;DHT22;9518;51.720;14.384;2022-07-29T09:39:29;26.40;99.90
18779;DHT22;9518;51.720;14.384;2022-07-29T09:41:59;26.80;99.90
18779;DHT22;9518;51.720;14.384;2022-07-29T09:44:26;26.60;99.90
18779;DHT22;9518;51.720;14.384;2022-07-29T09:46:57;26.60;99.90
18779;DHT22;9518;51.720;14.384;2022-07-29T09:49:28;26.80;99.90
18779;DHT22;9518;51.720;14.384;2022-07-29T09:52:04;26.90;99.90
18779;DHT22;9518;51.720;14.384;2022-07-29T09:54:32;26.70;99.90
18779;DHT22;9518;51.720;14.384;2022-07-29T09:57:03;26.90;99.90
18779;DHT22;9518;51.720;14.384;2022-07-29T09:59:31;27.00;99.90
18779;DHT22;9518;51.720;14.384;2022-07-29T10:01:58;27.10;99.90
18779;DHT22;9518;51.720;14.384;2022-07-29T10:04:37;27.10;99.90
18779;DHT22;9518;51.720;14.384;2022-07-29T10:07:04;27.10;99.90
18779;DHT22;9518;51.720;14.384;2022-07-29T10:09:33;27.30;99.90
18779;DHT22;9518;51.720;14.384;2022-07-29T10:12:05;27.30;99.90
18779;DHT22;9518;51.720;14.384;2022-07-29T10:14:33;27.40;99.90
18779;DHT22;9518;51.720;14.384;2022-07-29T10:17:01;27.50;99.90
18779;DHT22;9518;51.720;14.384;2022-07-29T10:19:29;27.50;99.90
18779;DHT22;9518;51.720;14.384;2022-07-29T10:21:57;27.70;99.90
18779;DHT22;9518;51.720;14.384;2022-07-29T10:24:25;28.10;99.90
18779;DHT22;9518;51.720;14.384;2022-07-29T10:26:55;28.10;99.90
18779;DHT22;9518;51.720;14.384;2022-07-29T10:29:22;28.60;99.90
18779;DHT22;9518;51.720;14.384;2022-07-29T10:31:57;29.00;99.90
18779;DHT22;9518;51.720;14.384;2022-07-29T10:34:36;28.90;99.90
18779;DHT22;9518;51.720;14.384;2022-07-29T10:37:18;28.90;99.90
18779;DHT22;9518;51.720;14.384;2022-07-29T10:39:55;28.60;99.90
18779;DHT22;9518;51.720;14.384;2022-07-29T10:42:28;28.50;99.90
18779;DHT22;9518;51.720;14.384;2022-07-29T10:44:56;29.20;99.90
18779;DHT22;9518;51.720;14.384;2022-07-29T10:47:24;29.70;99.90
18779;DHT22;9518;51.720;14.384;2022-07-29T10:49:58;29.80;99.90
18779;DHT22;9518;51.720;14.384;2022-07-29T10:52:31;29.70;99.90
18779;DHT22;9518;51.720;14.384;2022-07-29T10:55:31;29.10;99.90
18779;DHT22;9518;51.720;14.384;2022-07-29T10:58:14;29.10;99.90
18779;DHT22;9518;51.720;14.384;2022-07-29T11:00:41;28.80;99.90
18779;DHT22;9518;51.720;14.384;2022-07-29T11:03:09;28.80;99.90
18779;DHT22;9518;51.720;14.384;2022-07-29T11:05:53;29.10;99.90
18779;DHT22;9518;51.720;14.384;2022-07-29T11:08:22;29.20;99.90
18779;DHT22;9518;51.720;14.384;2022-07-29T11:10:53;29.70;99.90
18779;DHT22;9518;51.720;14.384;2022-07-29T11:13:48;29.90;99.90
18779;DHT22;9518;51.720;14.384;2022-07-29T11:16:17;30.50;99.90
18779;DHT22;9518;51.720;14.384;2022-07-29T11:19:18;30.20;99.90
18779;DHT22;9518;51.720;14.384;2022-07-29T11:21:46;30.40;99.90
18779;DHT22;9518;51.720;14.384;2022-07-29T11:24:16;30.70;99.90
18779;DHT22;9518;51.720;14.384;2022-07-29T11:26:43;30.70;99.90
18779;DHT22;9518;51.720;14.384;2022-07-29T11:29:19;31.00;99.90
18779;DHT22;9518;51.720;14.384;2022-07-29T11:31:49;31.20;99.90
18779;DHT22;9518;51.720;14.384;2022-07-29T11:34:22;31.20;99.90
18779;DHT22;9518;51.720;14.384;2022-07-29T11:37:15;31.40;99.90
18779;DHT22;9518;51.720;14.384;2022-07-29T11:39:42;32.00;99.90
18779;DHT22;9518;51.720;14.384;2022-07-29T11:42:38;32.00;99.90
18779;DHT22;9518;51.720;14.384;2022-07-29T11:45:08;32.10;99.90
18779;DHT22;9518;51.720;14.384;2022-07-29T11:47:37;33.00;99.90
18779;DHT22;9518;51.720;14.384;2022-07-29T11:50:06;33.60;99.90
18779;DHT22;9518;51.720;14.384;2022-07-29T11:52:34;34.00;99.90
18779;DHT22;9518;51.720;14.384;2022-07-29T11:55:05;34.30;99.90
18779;DHT22;9518;51.720;14.384;2022-07-29T11:57:34;35.00;99.90
18779;DHT22;9518;51.720;14.384;2022-07-29T12:00:01;35.20;99.90
18779;DHT22;9518;51.720;14.384;2022-07-29T12:02:40;34.90;99.90
18779;DHT22;9518;51.720;14.384;2022-07-29T12:05:08;34.50;99.90
18779;DHT22;9518;51.720;14.384;2022-07-29T12:07:37;34.40;99.90
18779;DHT22;9518;51.720;14.384;2022-07-29T12:10:05;34.40;99.90
18779;DHT22;9518;51.720;14.384;2022-07-29T12:12:32;34.80;99.90
18779;DHT22;9518;51.720;14.384;2022-07-29T12:15:11;34.90;99.90
18779;DHT22;9518;51.720;14.384;2022-07-29T12:17:39;35.10;99.90
18779;DHT22;9518;51.720;14.384;2022-07-29T12:20:06;35.40;99.90
18779;DHT22;9518;51.720;14.384;2022-07-29T12:22:35;36.00;99.90
18779;DHT22;9518;51.720;14.384;2022-07-29T12:25:06;36.50;99.90
18779;DHT22;9518;51.720;14.384;2022-07-29T12:27:34;36.30;99.90
18779;DHT22;9518;51.720;14.384;2022-07-29T12:30:04;35.70;99.90
18779;DHT22;9518;51.720;14.384;2022-07-29T12:32:33;35.90;99.90
18779;DHT22;9518;51.720;14.384;2022-07-29T12:35:06;36.10;99.90
18779;DHT22;9518;51.720;14.384;2022-07-29T12:37:35;35.40;99.90
18779;DHT22;9518;51.720;14.384;2022-07-29T12:40:05;35.80;99.90
18779;DHT22;9518;51.720;14.384;2022-07-29T12:42:33;35.50;99.90
18779;DHT22;9518;51.720;14.384;2022-07-29T12:45:01;35.70;99.90
18779;DHT22;9518;51.720;14.384;2022-07-29T12:47:28;36.50;99.90
18779;DHT22;9518;51.720;14.384;2022-07-29T12:50:10;37.20;99.90
18779;DHT22;9518;51.720;14.384;2022-07-29T12:52:37;37.90;99.90
18779;DHT22;9518;51.720;14.384;2022-07-29T12:55:05;38.40;99.90
18779;DHT22;9518;51.720;14.384;2022-07-29T12:57:32;38.30;99.90
18779;DHT22;9518;51.720;14.384;2022-07-29T13:00:12;38.50;99.90
18779;DHT22;9518;51.720;14.384;2022-07-29T13:02:40;38.70;99.90
18779;DHT22;9518;51.720;14.384;2022-07-29T13:05:10;39.40;99.90
18779;DHT22;9518;51.720;14.384;2022-07-29T13:07:38;39.80;99.90
18779;DHT22;9518;51.720;14.384;2022-07-29T13:10:14;40.10;99.90
18779;DHT22;9518;51.720;14.384;2022-07-29T13:13:03;39.40;99.90
18779;DHT22;9518;51.720;14.384;2022-07-29T13:15:30;39.50;99.90
18779;DHT22;9518;51.720;14.384;2022-07-29T13:17:57;39.60;99.90
18779;DHT22;9518;51.720;14.384;2022-07-29T13:20:27;38.40;99.90
18779;DHT22;9518;51.720;14.384;2022-07-29T13:22:55;37.20;99.90
18779;DHT22;9518;51.720;14.384;2022-07-29T13:25:26;36.30;99.90
18779;DHT22;9518;51.720;14.384;2022-07-29T13:27:54;35.00;99.90
18779;DHT22;9518;51.720;14.384;2022-07-29T13:30:22;33.80;99.90
18779;DHT22;9518;51.720;14.384;2022-07-29T13:32:49;33.20;99.90
18779;DHT22;9518;51.720;14.384;2022-07-29T13:35:16;33.00;99.90
18779;DHT22;9518;51.720;14.384;2022-07-29T13:37:45;32.60;99.90
18779;DHT22;9518;51.720;14.384;2022-07-29T13:40:13;32.30;99.90
18779;DHT22;9518;51.720;14.384;2022-07-29T13:42:40;32.20;99.90
18779;DHT22;9518;51.720;14.384;2022-07-29T13:45:09;32.20;99.90
18779;DHT22;9518;51.720;14.384;2022-07-29T13:47:36;32.10;99.90
18779;DHT22;9518;51.720;14.384;2022-07-29T13:50:06;32.30;99.90
18779;DHT22;9518;51.720;14.384;2022-07-29T13:52:33;32.40;99.90
18779;DHT22;9518;51.720;14.384;2022-07-29T13:55:02;32.50;99.90
18779;DHT22;9518;51.720;14.384;2022-07-29T13:57:29;33.90;99.90
18779;DHT22;9518;51.720;14.384;2022-07-29T13:59:57;34.30;99.90
18779;DHT22;9518;51.720;14.384;2022-07-29T14:02:24;33.80;99.90
18779;DHT22;9518;51.720;14.384;2022-07-29T14:04:51;33.70;99.90
18779;DHT22;9518;51.720;14.384;2022-07-29T14:07:18;33.70;99.90
18779;DHT22;9518;51.720;14.384;2022-07-29T14:09:45;33.10;99.90
18779;DHT22;9518;51.720;14.384;2022-07-29T14:12:13;32.80;99.90
18779;DHT22;9518;51.720;14.384;2022-07-29T14:14:40;32.40;99.90
18779;DHT22;9518;51.720;14.384;2022-07-29T14:17:07;32.50;99.90
18779;DHT22;9518;51.720;14.384;2022-07-29T14:19:34;32.20;99.90
18779;DHT22;9518;51.720;14.384;2022-07-29T14:22:04;31.90;99.90
18779;DHT22;9518;51.720;14.384;2022-07-29T14:24:31;31.50;99.90
18779;DHT22;9518;51.720;14.384;2022-07-29T14:26:58;31.10;99.90
18779;DHT22;9518;51.720;14.384;2022-07-29T14:29:27;30.80;99.90
18779;DHT22;9518;51.720;14.384;2022-07-29T14:31:54;30.90;99.90
18779;DHT22;9518;51.720;14.384;2022-07-29T14:34:21;31.10;99.90
18779;DHT22;9518;51.720;14.384;2022-07-29T14:36:47;30.80;99.90
18779;DHT22;9518;51.720;14.384;2022-07-29T14:39:14;30.90;99.90
18779;DHT22;9518;51.720;14.384;2022-07-29T14:41:42;32.00;99.90
18779;DHT22;9518;51.720;14.384;2022-07-29T14:44:09;33.50;99.90
18779;DHT22;9518;51.720;14.384;2022-07-29T14:46:37;34.60;99.90
18779;DHT22;9518;51.720;14.384;2022-07-29T14:49:04;35.20;99.90
18779;DHT22;9518;51.720;14.384;2022-07-29T14:51:32;36.10;99.90
18779;DHT22;9518;51.720;14.384;2022-07-29T14:53:59;37.20;99.90
18779;DHT22;9518;51.720;14.384;2022-07-29T14:56:26;38.60;99.90
18779;DHT22;9518;51.720;14.384;2022-07-29T14:58:55;40.00;99.90
18779;DHT22;9518;51.720;14.384;2022-07-29T15:01:22;40.30;99.90
18779;DHT22;9518;51.720;14.384;2022-07-29T15:03:51;40.50;99.90
18779;DHT22;9518;51.720;14.384;2022-07-29T15:06:18;41.30;99.90
18779;DHT22;9518;51.720;14.384;2022-07-29T15:08:45;41.30;99.90
18779;DHT22;9518;51.720;14.384;2022-07-29T15:11:12;41.80;99.90
18779;DHT22;9518;51.720;14.384;2022-07-29T15:13:38;41.80;99.90
18779;DHT22;9518;51.720;14.384;2022-07-29T15:16:05;41.60;99.90
18779;DHT22;9518;51.720;14.384;2022-07-29T15:18:32;40.60;99.90
18779;DHT22;9518;51.720;14.384;2022-07-29T15:21:01;39.90;99.90
18779;DHT22;9518;51.720;14.384;2022-07-29T15:23:28;40.30;99.90
18779;DHT22;9518;51.720;14.384;2022-07-29T15:25:54;41.10;99.90
18779;DHT22;9518;51.720;14.384;2022-07-29T15:28:21;41.40;99.90
18779;DHT22;9518;51.720;14.384;2022-07-29T15:30:48;41.80;99.90
18779;DHT22;9518;51.720;14.384;2022-07-29T15:33:15;42.20;99.90
18779;DHT22;9518;51.720;14.384;2022-07-29T15:35:43;40.50;99.90
18779;DHT22;9518;51.720;14.384;2022-07-29T15:38:11;38.30;99.90
18779;DHT22;9518;51.720;14.384;2022-07-29T15:40:39;36.20;99.90
18779;DHT22;9518;51.720;14.384;2022-07-29T15:43:08;34.50;99.90
18779;DHT22;9518;51.720;14.384;2022-07-29T15:45:36;32.70;99.90
18779;DHT22;9518;51.720;14.384;2022-07-29T15:48:04;32.00;99.90
18779;DHT22;9518;51.720;14.384;2022-07-29T15:50:32;31.80;99.90
18779;DHT22;9518;51.720;14.384;2022-07-29T15:52:59;31.60;99.90